Time;durP1;ratioP1;P1;durP2;ratioP2;P2;SDS_P1;SDS_P2;PMS_P1;PMS_P2;Temp;Humidity;BMP_temperature;BMP_pressure;BME280_temperature;BME280_humidity;BME280_pressure;Samples;Min_cycle;Max_cycle;Signal;HPM_P1;HPM_P2
2022/10/28 00:02:24;;;;;;;2.72;2.13;;;;;;;;;;5034719;28;93398;-77
2022/10/28 00:04:51;;;;;;;2.20;2.00;;;;;;;;;;5034607;27;92413;-77
2022/10/28 00:07:17;;;;;;;2.00;1.90;;;;;;;;;;5034767;28;93123;-77
2022/10/28 00:09:43;;;;;;;3.15;2.58;;;;;;;;;;5038612;28;92675;-77
2022/10/28 00:12:09;;;;;;;2.92;2.35;;;;;;;;;;5035252;28;92345;-77
2022/10/28 00:14:36;;;;;;;3.10;2.10;;;;;;;;;;5034905;28;93598;-77
2022/10/28 00:17:02;;;;;;;4.03;2.25;;;;;;;;;;5033461;28;94897;-77
2022/10/28 00:19:28;;;;;;;2.72;2.20;;;;;;;;;;5034992;28;95777;-77
2022/10/28 00:21:55;;;;;;;2.50;2.30;;;;;;;;;;5034613;28;93425;-77
2022/10/28 00:24:21;;;;;;;2.83;2.20;;;;;;;;;;5035569;28;92490;-77
2022/10/28 00:26:47;;;;;;;3.30;2.38;;;;;;;;;;5035052;28;93588;-77
2022/10/28 00:29:17;;;;;;;2.95;2.22;;;;;;;;;;5019796;28;93487;-77
2022/10/28 00:31:44;;;;;;;4.55;2.60;;;;;;;;;;5034900;28;93078;-77
2022/10/28 00:34:12;;;;;;;2.50;1.92;;;;;;;;;;5035168;28;92678;-77
2022/10/28 00:36:39;;;;;;;3.45;2.55;;;;;;;;;;5034841;28;92532;-77
2022/10/28 00:39:10;;;;;;;2.72;2.40;;;;;;;;;;5034837;28;93063;-77
2022/10/28 00:41:37;;;;;;;3.47;2.45;;;;;;;;;;5032699;28;95980;-77
2022/10/28 00:44:22;;;;;;;2.28;2.05;;;;;;;;;;5035008;28;92369;-77
2022/10/28 00:46:50;;;;;;;2.65;2.45;;;;;;;;;;5034624;28;93279;-77
2022/10/28 00:49:27;;;;;;;3.13;1.90;;;;;;;;;;5034871;28;93419;-77
2022/10/28 00:51:57;;;;;;;3.78;2.10;;;;;;;;;;5037848;28;92436;-77
2022/10/28 00:54:24;;;;;;;3.55;2.33;;;;;;;;;;5034210;28;93411;-77
2022/10/28 00:56:52;;;;;;;3.55;2.40;;;;;;;;;;5034323;28;92614;-77
2022/10/28 00:59:38;;;;;;;4.45;2.28;;;;;;;;;;5034694;28;93521;-76
2022/10/28 01:02:04;;;;;;;4.30;2.50;;;;;;;;;;5034810;28;95968;-77
2022/10/28 01:04:31;;;;;;;2.22;1.88;;;;;;;;;;5034754;28;92396;-77
2022/10/28 01:06:59;;;;;;;2.65;2.17;;;;;;;;;;5015083;28;94948;-77
2022/10/28 01:09:25;;;;;;;5.75;2.53;;;;;;;;;;5034131;28;93758;-77
2022/10/28 01:12:09;;;;;;;2.80;2.45;;;;;;;;;;5034357;28;92520;-77
2022/10/28 01:14:36;;;;;;;2.92;2.30;;;;;;;;;;5037137;28;93173;-77
2022/10/28 01:17:21;;;;;;;2.33;2.10;;;;;;;;;;5017879;28;92669;-77
2022/10/28 01:19:53;;;;;;;3.83;2.47;;;;;;;;;;5038034;28;93134;-77
2022/10/28 01:22:23;;;;;;;3.58;2.33;;;;;;;;;;5037872;28;93605;-77
2022/10/28 01:24:59;;;;;;;2.65;2.22;;;;;;;;;;5038886;28;91674;-77
2022/10/28 01:27:31;;;;;;;5.65;2.28;;;;;;;;;;5038061;28;92452;-77
2022/10/28 01:30:09;;;;;;;2.22;1.85;;;;;;;;;;5037810;28;93352;-77
2022/10/28 01:32:38;;;;;;;2.55;2.20;;;;;;;;;;5035966;28;94907;-77
2022/10/28 01:35:07;;;;;;;2.63;2.15;;;;;;;;;;5037662;28;95535;-77
2022/10/28 01:37:37;;;;;;;4.10;2.55;;;;;;;;;;5040820;28;93437;-77
2022/10/28 01:40:29;;;;;;;3.33;2.28;;;;;;;;;;5037408;28;93100;-77
2022/10/28 01:43:05;;;;;;;2.20;2.00;;;;;;;;;;5032844;28;94474;-77
2022/10/28 01:45:50;;;;;;;3.05;2.00;;;;;;;;;;5019334;28;92494;-77
2022/10/28 01:48:27;;;;;;;3.40;2.38;;;;;;;;;;5037940;28;93227;-77
2022/10/28 01:50:59;;;;;;;2.75;2.30;;;;;;;;;;5037676;28;93033;-77
2022/10/28 01:53:29;;;;;;;3.88;2.72;;;;;;;;;;5036978;28;92498;-77
2022/10/28 01:55:57;;;;;;;3.30;2.28;;;;;;;;;;5037204;28;93242;-77
2022/10/28 01:58:27;;;;;;;4.10;2.58;;;;;;;;;;5035195;28;95827;-77
2022/10/28 02:00:54;;;;;;;3.50;2.23;;;;;;;;;;5040291;28;92624;-77
2022/10/28 02:03:22;;;;;;;3.22;2.15;;;;;;;;;;5019152;28;93441;-77
2022/10/28 02:05:50;;;;;;;3.80;2.30;;;;;;;;;;5037207;28;92484;-77
2022/10/28 02:08:16;;;;;;;5.18;2.38;;;;;;;;;;5036918;28;92843;-77
2022/10/28 02:11:02;;;;;;;2.40;2.08;;;;;;;;;;5019047;28;93433;-77
2022/10/28 02:13:45;;;;;;;2.30;2.10;;;;;;;;;;5037208;28;92418;-77
2022/10/28 02:16:14;;;;;;;4.00;2.65;;;;;;;;;;5037204;28;93138;-77
2022/10/28 02:18:40;;;;;;;3.95;2.30;;;;;;;;;;5037367;28;93349;-77
2022/10/28 02:21:19;;;;;;;4.72;2.08;;;;;;;;;;5037401;28;92532;-77
2022/10/28 02:23:51;;;;;;;2.70;2.25;;;;;;;;;;5038463;28;95212;-77
2022/10/28 02:26:36;;;;;;;2.20;2.00;;;;;;;;;;5036965;28;92459;-77
2022/10/28 02:29:21;;;;;;;4.07;2.55;;;;;;;;;;5035966;27;93484;-77
2022/10/28 02:31:47;;;;;;;2.95;2.20;;;;;;;;;;5036856;28;93433;-77
2022/10/28 02:34:19;;;;;;;2.40;2.00;;;;;;;;;;5036995;28;92437;-77
2022/10/28 02:36:47;;;;;;;2.13;1.90;;;;;;;;;;5036821;28;92424;-77
2022/10/28 02:39:15;;;;;;;3.78;2.20;;;;;;;;;;5036181;28;93203;-77
2022/10/28 02:41:56;;;;;;;3.13;2.22;;;;;;;;;;5037173;28;91797;-77
2022/10/28 02:44:25;;;;;;;4.68;2.17;;;;;;;;;;5040151;28;92420;-77
2022/10/28 02:46:53;;;;;;;4.00;2.22;;;;;;;;;;5036204;28;92423;-77
2022/10/28 02:49:21;;;;;;;2.67;1.90;;;;;;;;;;5017438;28;94900;-77
2022/10/28 02:51:51;;;;;;;3.97;2.35;;;;;;;;;;5036323;28;93376;-77
2022/10/28 02:54:20;;;;;;;3.30;2.33;;;;;;;;;;5036771;28;92445;-77
2022/10/28 02:56:52;;;;;;;3.53;2.42;;;;;;;;;;5036299;28;93138;-77
2022/10/28 02:59:18;;;;;;;4.63;1.85;;;;;;;;;;5035924;28;93379;-77
2022/10/28 03:01:45;;;;;;;2.33;2.13;;;;;;;;;;5036225;28;92378;-77
2022/10/28 03:04:11;;;;;;;2.72;2.15;;;;;;;;;;5017989;28;93179;-77
2022/10/28 03:06:37;;;;;;;3.13;1.90;;;;;;;;;;5038933;28;92614;-77
2022/10/28 03:09:04;;;;;;;3.63;2.20;;;;;;;;;;5036131;28;92442;-77
2022/10/28 03:11:30;;;;;;;2.13;1.92;;;;;;;;;;5035240;28;93734;-77
2022/10/28 03:13:56;;;;;;;6.53;2.38;;;;;;;;;;5034663;28;94857;-77
2022/10/28 03:16:23;;;;;;;2.38;2.08;;;;;;;;;;5035927;28;95818;-77
2022/10/28 03:18:49;;;;;;;4.70;2.50;;;;;;;;;;5035797;28;93911;-77
2022/10/28 03:21:16;;;;;;;2.45;2.20;;;;;;;;;;5035880;28;92480;-77
2022/10/28 03:23:42;;;;;;;4.63;2.03;;;;;;;;;;5018525;28;93457;-77
2022/10/28 03:26:08;;;;;;;2.67;2.20;;;;;;;;;;5035837;28;92402;-77
2022/10/28 03:28:34;;;;;;;3.10;2.20;;;;;;;;;;5039138;28;92468;-77
2022/10/28 03:31:01;;;;;;;2.70;2.15;;;;;;;;;;5036169;28;92692;-77
2022/10/28 03:33:27;;;;;;;2.42;2.20;;;;;;;;;;5036068;28;92882;-77
2022/10/28 03:35:53;;;;;;;2.75;2.47;;;;;;;;;;5035803;28;93152;-77
2022/10/28 03:38:20;;;;;;;2.42;1.95;;;;;;;;;;5033567;28;95828;-77
2022/10/28 03:40:47;;;;;;;2.45;2.20;;;;;;;;;;5036199;27;92385;-77
2022/10/28 03:43:13;;;;;;;2.40;2.08;;;;;;;;;;5035799;28;92995;-77
2022/10/28 03:45:40;;;;;;;2.70;2.30;;;;;;;;;;5034971;28;93305;-77
2022/10/28 03:48:06;;;;;;;2.38;2.15;;;;;;;;;;5035094;28;92791;-77
2022/10/28 03:50:32;;;;;;;4.38;2.13;;;;;;;;;;5038595;28;93127;-77
2022/10/28 03:52:59;;;;;;;3.85;2.20;;;;;;;;;;5035669;28;92460;-77
2022/10/28 03:55:26;;;;;;;4.75;2.97;;;;;;;;;;5036198;28;93376;-77
2022/10/28 03:57:52;;;;;;;2.45;2.25;;;;;;;;;;5035386;28;93598;-77
2022/10/28 04:00:19;;;;;;;2.75;1.98;;;;;;;;;;5035544;28;92516;-77
2022/10/28 04:02:52;;;;;;;3.63;2.10;;;;;;;;;;5033773;28;94819;-77
2022/10/28 04:05:19;;;;;;;7.57;2.53;;;;;;;;;;5035033;28;93499;-77
2022/10/28 04:07:45;;;;;;;3.92;2.30;;;;;;;;;;5035181;28;92504;-77
2022/10/28 04:10:12;;;;;;;4.10;2.22;;;;;;;;;;5035096;28;93159;-77
2022/10/28 04:12:38;;;;;;;2.60;2.40;;;;;;;;;;5038409;28;93292;-77
2022/10/28 04:15:05;;;;;;;3.38;2.20;;;;;;;;;;5034714;28;93469;-77
2022/10/28 04:17:32;;;;;;;4.47;2.38;;;;;;;;;;5034848;28;93514;-77
2022/10/28 04:19:59;;;;;;;4.88;2.45;;;;;;;;;;5014277;28;91751;-77
2022/10/28 04:22:25;;;;;;;4.53;2.53;;;;;;;;;;5014737;28;92395;-77
2022/10/28 04:24:53;;;;;;;2.60;2.20;;;;;;;;;;5014724;28;93439;-77
2022/10/28 04:27:20;;;;;;;2.53;2.03;;;;;;;;;;5013446;28;94875;-77
2022/10/28 04:29:46;;;;;;;3.60;2.25;;;;;;;;;;5014384;28;95565;-77
2022/10/28 04:32:12;;;;;;;6.63;2.00;;;;;;;;;;5014783;28;93420;-77
2022/10/28 04:34:38;;;;;;;5.35;2.33;;;;;;;;;;5018117;28;92340;-77
2022/10/28 04:37:05;;;;;;;3.80;2.63;;;;;;;;;;5014389;28;93755;-77
2022/10/28 04:39:31;;;;;;;3.97;2.25;;;;;;;;;;5014694;28;92493;-77
2022/10/28 04:41:57;;;;;;;3.05;2.00;;;;;;;;;;5014484;28;93185;-77
2022/10/28 04:44:23;;;;;;;2.97;2.22;;;;;;;;;;5015072;28;92692;-77
2022/10/28 04:46:50;;;;;;;2.88;1.98;;;;;;;;;;5030865;28;92476;-77
2022/10/28 04:49:16;;;;;;;2.33;2.10;;;;;;;;;;5034717;28;93525;-77
2022/10/28 04:51:42;;;;;;;4.70;2.22;;;;;;;;;;5032313;28;95868;-77
2022/10/28 04:54:09;;;;;;;3.00;2.10;;;;;;;;;;5037959;28;92374;-77
2022/10/28 04:56:35;;;;;;;3.90;2.10;;;;;;;;;;5034167;28;93486;-77
2022/10/28 04:59:01;;;;;;;2.38;2.00;;;;;;;;;;5016612;28;92443;-77
2022/10/28 05:01:27;;;;;;;2.63;2.10;;;;;;;;;;5034660;28;93515;-77
2022/10/28 05:03:54;;;;;;;2.42;2.05;;;;;;;;;;5034469;28;94749;-77
2022/10/28 05:06:20;;;;;;;4.43;2.35;;;;;;;;;;5033585;28;93451;-77
2022/10/28 05:08:46;;;;;;;2.00;1.90;;;;;;;;;;5035128;28;93126;-77
2022/10/28 05:11:13;;;;;;;3.83;2.60;;;;;;;;;;5034749;28;96023;-77
2022/10/28 05:13:39;;;;;;;3.13;2.25;;;;;;;;;;5034948;28;92425;-77
2022/10/28 05:16:06;;;;;;;2.50;2.20;;;;;;;;;;5017954;28;94850;-77
2022/10/28 05:18:32;;;;;;;2.75;2.40;;;;;;;;;;5034371;28;92479;-77
2022/10/28 05:20:59;;;;;;;3.08;2.20;;;;;;;;;;5034667;28;93966;-77
2022/10/28 05:23:25;;;;;;;2.53;1.92;;;;;;;;;;5033936;28;93752;-77
2022/10/28 05:25:55;;;;;;;3.15;2.30;;;;;;;;;;5033906;28;92703;-77
2022/10/28 05:28:22;;;;;;;4.15;2.00;;;;;;;;;;5034380;28;93161;-77
2022/10/28 05:30:48;;;;;;;3.10;2.10;;;;;;;;;;5033953;28;93413;-77
2022/10/28 05:33:14;;;;;;;2.47;2.20;;;;;;;;;;5035011;28;91735;-77
2022/10/28 05:35:40;;;;;;;4.82;2.30;;;;;;;;;;5034059;28;92365;-77
2022/10/28 05:38:07;;;;;;;5.35;2.33;;;;;;;;;;5036673;28;93417;-77
2022/10/28 05:40:33;;;;;;;3.80;2.08;;;;;;;;;;5032345;28;94851;-77
2022/10/28 05:42:59;;;;;;;2.83;2.15;;;;;;;;;;5033968;28;93824;-77
2022/10/28 05:45:26;;;;;;;4.18;2.30;;;;;;;;;;5033817;28;92462;-77
2022/10/28 05:47:52;;;;;;;4.10;2.30;;;;;;;;;;5034051;28;93139;-77
2022/10/28 05:50:20;;;;;;;2.58;2.03;;;;;;;;;;5034072;28;93838;-77
2022/10/28 05:52:47;;;;;;;4.90;2.47;;;;;;;;;;5033609;28;92798;-77
2022/10/28 05:55:14;;;;;;;4.00;1.92;;;;;;;;;;5033784;28;93096;-77
2022/10/28 05:57:40;;;;;;;3.10;2.08;;;;;;;;;;5016279;28;93010;-77
2022/10/28 06:00:07;;;;;;;4.13;1.95;;;;;;;;;;5036910;28;92458;-77
2022/10/28 06:02:33;;;;;;;3.45;2.28;;;;;;;;;;5016160;27;93202;-77
2022/10/28 06:04:59;;;;;;;3.13;2.10;;;;;;;;;;5035360;28;94808;-77
2022/10/28 06:07:27;;;;;;;3.65;2.10;;;;;;;;;;5036760;28;95521;-77
2022/10/28 06:09:53;;;;;;;2.97;2.03;;;;;;;;;;5036941;28;93567;-77
2022/10/28 06:12:20;;;;;;;1.90;1.77;;;;;;;;;;5036772;28;92466;-77
2022/10/28 06:14:46;;;;;;;2.08;1.70;;;;;;;;;;5037169;28;93207;-77
2022/10/28 06:17:12;;;;;;;5.18;1.98;;;;;;;;;;5036701;28;93774;-77
2022/10/28 06:19:39;;;;;;;3.08;2.40;;;;;;;;;;5036663;28;92460;-77
2022/10/28 06:22:05;;;;;;;2.28;1.77;;;;;;;;;;5040188;28;93111;-77
2022/10/28 06:24:31;;;;;;;3.15;2.10;;;;;;;;;;5037046;28;92404;-77
2022/10/28 06:26:58;;;;;;;3.65;2.20;;;;;;;;;;5036919;28;93106;-77
2022/10/28 06:29:24;;;;;;;4.15;2.20;;;;;;;;;;5017884;28;95797;-77
2022/10/28 06:31:50;;;;;;;5.95;2.67;;;;;;;;;;5036829;28;92497;-77
2022/10/28 06:34:16;;;;;;;2.55;2.13;;;;;;;;;;5037526;28;94612;-77
2022/10/28 06:36:43;;;;;;;4.38;2.15;;;;;;;;;;5018875;28;93393;-77
2022/10/28 06:39:09;;;;;;;3.80;2.30;;;;;;;;;;5019023;28;92402;-77
2022/10/28 06:41:36;;;;;;;5.03;2.10;;;;;;;;;;5039635;28;92984;-77
2022/10/28 06:44:02;;;;;;;6.13;2.10;;;;;;;;;;5037039;28;92473;-77
2022/10/28 06:46:28;;;;;;;3.47;2.38;;;;;;;;;;5036865;28;93068;-77
2022/10/28 06:48:55;;;;;;;5.82;2.25;;;;;;;;;;5036394;28;93889;-77
2022/10/28 06:51:22;;;;;;;4.35;1.77;;;;;;;;;;5036191;28;92413;-77
2022/10/28 06:53:49;;;;;;;2.88;2.20;;;;;;;;;;5017323;28;94934;-77
2022/10/28 06:56:15;;;;;;;5.22;2.60;;;;;;;;;;5036956;28;96573;-77
2022/10/28 06:58:41;;;;;;;1.90;1.70;;;;;;;;;;5036149;28;92625;-77
2022/10/28 07:01:08;;;;;;;4.32;2.47;;;;;;;;;;5036441;28;93375;-77
2022/10/28 07:03:34;;;;;;;3.15;2.00;;;;;;;;;;5038869;28;93589;-77
2022/10/28 07:06:00;;;;;;;4.90;2.25;;;;;;;;;;5035639;28;93105;-77
2022/10/28 07:08:27;;;;;;;3.45;2.42;;;;;;;;;;5036324;28;94544;-77
2022/10/28 07:10:55;;;;;;;3.72;2.20;;;;;;;;;;5036481;28;91693;-77
2022/10/28 07:13:21;;;;;;;4.68;2.25;;;;;;;;;;5036160;28;92460;-77
2022/10/28 07:15:51;;;;;;;3.33;2.38;;;;;;;;;;5035359;27;93382;-77
2022/10/28 07:18:18;;;;;;;2.47;2.25;;;;;;;;;;5034409;28;95118;-77
2022/10/28 07:20:44;;;;;;;2.92;2.20;;;;;;;;;;5036069;28;95910;-77
2022/10/28 07:23:10;;;;;;;4.25;2.30;;;;;;;;;;5035940;28;93682;-77
2022/10/28 07:25:37;;;;;;;2.38;2.17;;;;;;;;;;5039147;28;92455;-77
2022/10/28 07:28:03;;;;;;;4.22;2.30;;;;;;;;;;5035825;28;93442;-77
2022/10/28 07:30:30;;;;;;;3.97;2.47;;;;;;;;;;5036360;28;92449;-77
2022/10/28 07:33:00;;;;;;;3.63;2.10;;;;;;;;;;5035503;28;93148;-77
2022/10/28 07:35:27;;;;;;;3.33;2.38;;;;;;;;;;5036375;28;92628;-77
2022/10/28 07:37:53;;;;;;;3.45;2.30;;;;;;;;;;5035948;28;92441;-77
2022/10/28 07:40:22;;;;;;;3.80;2.40;;;;;;;;;;5036423;28;92441;-77
2022/10/28 07:42:49;;;;;;;3.83;2.57;;;;;;;;;;5033703;28;95796;-77
2022/10/28 07:45:16;;;;;;;3.22;2.05;;;;;;;;;;5035319;28;93020;-77
2022/10/28 07:47:42;;;;;;;3.00;2.22;;;;;;;;;;5039038;28;92936;-77
2022/10/28 07:50:09;;;;;;;3.38;2.42;;;;;;;;;;5035554;28;92394;-77
2022/10/28 07:52:35;;;;;;;6.15;1.98;;;;;;;;;;5035472;28;93255;-77
2022/10/28 07:55:03;;;;;;;6.00;2.15;;;;;;;;;;5035250;28;93847;-77
2022/10/28 07:57:29;;;;;;;3.80;2.58;;;;;;;;;;5018135;28;92447;-77
2022/10/28 07:59:55;;;;;;;5.50;2.65;;;;;;;;;;5035913;28;91836;-77
2022/10/28 08:02:22;;;;;;;3.85;2.03;;;;;;;;;;5034714;28;93424;-77
2022/10/28 08:04:49;;;;;;;5.60;2.53;;;;;;;;;;5035782;28;92429;-77
2022/10/28 08:07:16;;;;;;;3.08;2.38;;;;;;;;;;5033169;28;95321;-77
2022/10/28 08:09:42;;;;;;;3.55;2.67;;;;;;;;;;5038411;28;93526;-77
2022/10/28 08:12:11;;;;;;;4.00;2.30;;;;;;;;;;5017791;28;94584;-77
2022/10/28 08:14:37;;;;;;;2.95;2.20;;;;;;;;;;5034878;28;93887;-77
2022/10/28 08:17:04;;;;;;;6.03;2.47;;;;;;;;;;5035197;28;92464;-77
2022/10/28 08:19:30;;;;;;;2.60;2.40;;;;;;;;;;5034954;28;93106;-77
2022/10/28 08:21:57;;;;;;;2.40;2.10;;;;;;;;;;5014948;28;92374;-77
2022/10/28 08:24:24;;;;;;;3.63;2.17;;;;;;;;;;5015490;28;91724;-77
2022/10/28 08:26:50;;;;;;;6.63;2.50;;;;;;;;;;5013942;28;92809;-77
2022/10/28 08:29:16;;;;;;;6.53;2.42;;;;;;;;;;5014289;28;93498;-77
2022/10/28 08:31:42;;;;;;;5.47;2.30;;;;;;;;;;5016372;28;94846;-77
2022/10/28 08:34:09;;;;;;;4.15;2.33;;;;;;;;;;5015129;28;94386;-77
2022/10/28 08:36:35;;;;;;;4.25;2.40;;;;;;;;;;5015536;28;92386;-77
2022/10/28 08:39:01;;;;;;;3.13;2.20;;;;;;;;;;4996767;28;93465;-77
2022/10/28 08:41:34;;;;;;;4.18;2.25;;;;;;;;;;5014614;28;93402;-77
2022/10/28 08:44:14;;;;;;;2.80;2.47;;;;;;;;;;5014663;28;92438;-77
2022/10/28 08:46:40;;;;;;;2.97;2.40;;;;;;;;;;5029230;28;93485;-77
2022/10/28 08:49:13;;;;;;;2.90;2.40;;;;;;;;;;5034881;28;92676;-77
2022/10/28 08:51:42;;;;;;;3.70;2.30;;;;;;;;;;5037835;28;92456;-77
2022/10/28 08:54:17;;;;;;;3.38;2.30;;;;;;;;;;5034356;28;93788;-77
2022/10/28 08:56:45;;;;;;;3.95;1.98;;;;;;;;;;5015660;28;94865;-77
2022/10/28 08:59:17;;;;;;;4.15;2.35;;;;;;;;;;5034513;28;96075;-77
2022/10/28 09:01:48;;;;;;;3.33;2.30;;;;;;;;;;5034333;28;93344;-77
2022/10/28 09:04:32;;;;;;;3.30;2.42;;;;;;;;;;5034072;28;92438;-77
2022/10/28 09:07:00;;;;;;;3.65;2.35;;;;;;;;;;5034556;28;94295;-77
2022/10/28 09:09:26;;;;;;;3.35;2.28;;;;;;;;;;5034461;28;93632;-77
2022/10/28 09:12:15;;;;;;;7.80;2.50;;;;;;;;;;5034431;28;92544;-77
2022/10/28 09:14:56;;;;;;;4.07;2.47;;;;;;;;;;5037828;28;95392;-77
2022/10/28 09:17:33;;;;;;;4.47;2.00;;;;;;;;;;5034882;28;92621;-77
2022/10/28 09:20:20;;;;;;;2.03;1.83;;;;;;;;;;5034190;28;93160;-77
2022/10/28 09:22:49;;;;;;;5.32;2.08;;;;;;;;;;5014707;28;95830;-77
2022/10/28 09:25:24;;;;;;;3.63;2.60;;;;;;;;;;5034495;28;92540;-77
2022/10/28 09:28:04;;;;;;;2.33;2.00;;;;;;;;;;5016570;28;95335;-77
2022/10/28 09:30:34;;;;;;;3.20;2.10;;;;;;;;;;5034704;28;93262;-77
2022/10/28 09:33:19;;;;;;;5.68;2.38;;;;;;;;;;5033811;28;92560;-77
2022/10/28 09:35:46;;;;;;;4.65;2.17;;;;;;;;;;5034159;28;93132;-77
2022/10/28 09:38:12;;;;;;;6.20;2.35;;;;;;;;;;5038849;27;93494;-77
2022/10/28 09:40:40;;;;;;;3.53;2.00;;;;;;;;;;5020129;28;93127;-77
2022/10/28 09:43:27;;;;;;;4.15;1.98;;;;;;;;;;5037279;28;93400;-77
2022/10/28 09:45:56;;;;;;;4.30;2.15;;;;;;;;;;5037468;28;92424;-77
2022/10/28 09:48:25;;;;;;;5.15;2.47;;;;;;;;;;5035974;28;94830;-77
2022/10/28 09:50:52;;;;;;;3.22;2.20;;;;;;;;;;5019738;28;93406;-77
2022/10/28 09:53:28;;;;;;;5.45;2.42;;;;;;;;;;5019744;28;92693;-77
2022/10/28 09:56:02;;;;;;;4.40;2.58;;;;;;;;;;5037171;28;93268;-77
2022/10/28 09:58:28;;;;;;;7.22;2.10;;;;;;;;;;5037479;28;93323;-77
2022/10/28 10:00:55;;;;;;;4.38;2.42;;;;;;;;;;5040015;28;92298;-77
2022/10/28 10:03:22;;;;;;;3.90;2.15;;;;;;;;;;5037025;28;93716;-78
2022/10/28 10:05:50;;;;;;;5.72;2.00;;;;;;;;;;5037616;28;92060;-77
2022/10/28 10:08:17;;;;;;;4.75;2.13;;;;;;;;;;5037066;28;96318;-77
2022/10/28 10:11:19;;;;;;;3.20;2.13;;;;;;;;;;5037451;28;94436;-77
2022/10/28 10:13:46;;;;;;;3.80;2.28;;;;;;;;;;4954026;28;94849;-77
2022/10/28 10:16:18;;;;;;;3.80;1.92;;;;;;;;;;4955161;28;95471;-77
2022/10/28 10:18:48;;;;;;;4.47;2.33;;;;;;;;;;4955267;28;93489;-77
2022/10/28 10:21:37;;;;;;;4.75;2.15;;;;;;;;;;4955106;28;92612;-77
2022/10/28 10:24:20;;;;;;;3.88;2.28;;;;;;;;;;4958490;28;93082;-77
2022/10/28 10:26:46;;;;;;;2.47;1.70;;;;;;;;;;4955671;28;92568;-77
2022/10/28 10:29:12;;;;;;;5.05;2.15;;;;;;;;;;4954973;28;93576;-77
2022/10/28 10:31:39;;;;;;;10.77;2.40;;;;;;;;;;4955565;28;93197;-77
2022/10/28 10:34:06;;;;;;;3.53;2.08;;;;;;;;;;4954999;28;92525;-77
2022/10/28 10:36:32;;;;;;;4.40;2.38;;;;;;;;;;4938521;28;93436;-77
2022/10/28 10:39:00;;;;;;;3.75;2.13;;;;;;;;;;4953313;28;96043;-77
2022/10/28 10:41:40;;;;;;;4.00;2.13;;;;;;;;;;4954626;28;92508;-77
2022/10/28 10:44:21;;;;;;;2.50;1.83;;;;;;;;;;4938989;28;93194;-77
2022/10/28 10:46:54;;;;;;;4.70;2.00;;;;;;;;;;4961292;28;93893;-77
2022/10/28 10:49:20;;;;;;;5.72;2.50;;;;;;;;;;5015840;28;93158;-77
2022/10/28 10:51:55;;;;;;;2.75;1.90;;;;;;;;;;5016252;28;93493;-77
2022/10/28 10:54:23;;;;;;;2.85;2.10;;;;;;;;;;5016243;28;93240;-77
2022/10/28 10:56:49;;;;;;;4.10;2.10;;;;;;;;;;5016765;28;93140;-77
2022/10/28 10:59:21;;;;;;;7.38;2.80;;;;;;;;;;5016634;28;95426;-77
2022/10/28 11:01:47;;;;;;;8.55;2.45;;;;;;;;;;4998665;28;92510;-77
2022/10/28 11:04:15;;;;;;;5.18;2.70;;;;;;;;;;5014407;28;94771;-77
2022/10/28 11:06:43;;;;;;;2.97;2.15;;;;;;;;;;5018915;28;92547;-77
2022/10/28 11:09:18;;;;;;;3.45;2.00;;;;;;;;;;5016278;28;92991;-77
2022/10/28 11:11:44;;;;;;;6.10;2.42;;;;;;;;;;5015741;28;93566;-77
2022/10/28 11:14:13;;;;;;;4.78;2.20;;;;;;;;;;5016100;28;92453;-77
2022/10/28 11:16:56;;;;;;;3.30;2.25;;;;;;;;;;5030420;28;93112;-77
2022/10/28 11:19:26;;;;;;;6.68;2.45;;;;;;;;;;5036086;28;93301;-77
2022/10/28 11:21:53;;;;;;;;;;;;;;;;;;5036853;28;91746;-77
2022/10/28 11:24:27;;;;;;;5.65;2.58;;;;;;;;;;5037075;28;122713;-77
2022/10/28 11:27:02;;;;;;;4.10;1.98;;;;;;;;;;5036322;28;94632;-77
2022/10/28 11:29:28;;;;;;;4.35;2.08;;;;;;;;;;5038027;28;94859;-77
2022/10/28 11:31:55;;;;;;;3.40;1.90;;;;;;;;;;5036349;28;94890;-77
2022/10/28 11:34:33;;;;;;;4.07;2.30;;;;;;;;;;5035873;28;92425;-77
2022/10/28 11:37:08;;;;;;;6.22;2.80;;;;;;;;;;5018123;28;93480;-77
2022/10/28 11:39:40;;;;;;;6.78;2.50;;;;;;;;;;5018152;28;93703;-77
2022/10/28 11:42:25;;;;;;;4.55;2.22;;;;;;;;;;5035593;28;92478;-77
2022/10/28 11:44:57;;;;;;;5.45;2.50;;;;;;;;;;5035766;28;93268;-77
2022/10/28 11:47:23;;;;;;;3.22;2.05;;;;;;;;;;4998284;28;93558;-77
2022/10/28 11:50:01;;;;;;;5.20;2.40;;;;;;;;;;4997959;28;92484;-77
2022/10/28 11:52:27;;;;;;;3.88;2.40;;;;;;;;;;5018180;28;93185;-77
2022/10/28 11:55:02;;;;;;;5.55;2.40;;;;;;;;;;5013889;28;94918;-77
2022/10/28 11:57:31;;;;;;;4.70;2.30;;;;;;;;;;5015182;28;95511;-77
2022/10/28 12:00:09;;;;;;;4.13;2.50;;;;;;;;;;5015420;28;93490;-77
2022/10/28 12:02:54;;;;;;;4.32;2.50;;;;;;;;;;5014048;28;93160;-77
2022/10/28 12:05:24;;;;;;;5.68;2.50;;;;;;;;;;5015134;28;93000;-77
2022/10/28 12:07:56;;;;;;;8.13;3.22;;;;;;;;;;5015445;28;92478;-77
2022/10/28 12:11:01;;;;;;;4.78;2.38;;;;;;;;;;5015445;28;92457;-77
2022/10/28 12:13:53;;;;;;;7.57;2.90;;;;;;;;;;4933931;28;93102;-77
2022/10/28 12:16:29;;;;;;;4.60;2.35;;;;;;;;;;4926220;28;94824;-77
2022/10/28 12:19:05;;;;;;;6.93;2.90;;;;;;;;;;4953626;28;93087;-77
2022/10/28 12:21:32;;;;;;;3.55;2.10;;;;;;;;;;4951340;28;95859;-77
2022/10/28 12:24:02;;;;;;;2.83;2.28;;;;;;;;;;4953967;28;92787;-77
2022/10/28 12:26:34;;;;;;;4.88;2.25;;;;;;;;;;4953737;28;93151;-77
2022/10/28 12:29:02;;;;;;;6.78;2.25;;;;;;;;;;4953095;28;93799;-77
2022/10/28 12:31:31;;;;;;;4.10;2.40;;;;;;;;;;4953022;28;92399;-77
2022/10/28 12:33:59;;;;;;;6.47;2.50;;;;;;;;;;4953430;28;93118;-77
2022/10/28 12:36:31;;;;;;;5.00;2.60;;;;;;;;;;4936807;28;93348;-77
2022/10/28 12:39:03;;;;;;;4.38;2.50;;;;;;;;;;4956578;28;91647;-77
2022/10/28 12:41:47;;;;;;;4.10;2.10;;;;;;;;;;4952982;28;93795;-77
2022/10/28 12:44:21;;;;;;;4.43;2.45;;;;;;;;;;4991354;28;92502;-77
2022/10/28 12:46:47;;;;;;;6.40;2.75;;;;;;;;;;5032986;28;94837;-77
2022/10/28 12:49:22;;;;;;;2.75;2.10;;;;;;;;;;5035109;28;93388;-77
2022/10/28 12:51:48;;;;;;;6.53;2.53;;;;;;;;;;5017041;28;92480;-77
2022/10/28 12:54:26;;;;;;;4.45;2.72;;;;;;;;;;5034532;28;93411;-77
2022/10/28 12:57:12;;;;;;;6.85;2.92;;;;;;;;;;5016730;28;93346;-77
2022/10/28 12:59:42;;;;;;;3.10;2.50;;;;;;;;;;5033725;28;92337;-77
2022/10/28 13:02:17;;;;;;;3.92;2.67;;;;;;;;;;5037827;28;94476;-77
2022/10/28 13:04:43;;;;;;;7.85;2.97;;;;;;;;;;5017818;28;91868;-77
2022/10/28 13:07:15;;;;;;;9.75;2.60;;;;;;;;;;5034008;28;92412;-77
2022/10/28 13:09:42;;;;;;;4.80;2.55;;;;;;;;;;5035067;28;93769;-77
2022/10/28 13:12:23;;;;;;;4.45;2.58;;;;;;;;;;5032868;27;94823;-78
2022/10/28 13:14:52;;;;;;;6.88;2.65;;;;;;;;;;5037888;28;95764;-77
2022/10/28 13:17:23;;;;;;;5.43;2.72;;;;;;;;;;5037794;28;93617;-77
2022/10/28 13:19:52;;;;;;;3.63;2.45;;;;;;;;;;5038193;28;92432;-77
2022/10/28 13:22:27;;;;;;;5.53;2.65;;;;;;;;;;5040989;28;93373;-77
2022/10/28 13:25:08;;;;;;;5.00;2.60;;;;;;;;;;5038500;28;92512;-77
2022/10/28 13:27:35;;;;;;;3.90;2.35;;;;;;;;;;5019978;28;92476;-77
2022/10/28 13:30:15;;;;;;;5.25;2.85;;;;;;;;;;5038577;28;92307;-77
2022/10/28 13:32:41;;;;;;;8.02;2.72;;;;;;;;;;5038295;28;92371;-77
2022/10/28 13:35:20;;;;;;;4.35;2.60;;;;;;;;;;5038537;28;93643;-77
2022/10/28 13:37:47;;;;;;;6.68;2.90;;;;;;;;;;5035564;28;95811;-77
2022/10/28 13:40:21;;;;;;;6.68;2.40;;;;;;;;;;5038064;28;92365;-77
2022/10/28 13:42:48;;;;;;;5.07;3.03;;;;;;;;;;5037826;28;95653;-77
2022/10/28 13:45:33;;;;;;;6.22;2.70;;;;;;;;;;5022467;28;93471;-77
2022/10/28 13:48:18;;;;;;;5.22;2.55;;;;;;;;;;5037317;28;93289;-77
2022/10/28 13:50:44;;;;;;;7.85;2.95;;;;;;;;;;5037595;28;93424;-77
2022/10/28 13:53:35;;;;;;;7.70;2.65;;;;;;;;;;5019439;28;92573;-77
2022/10/28 13:56:10;;;;;;;5.20;2.75;;;;;;;;;;5037898;28;93271;-77
2022/10/28 13:58:36;;;;;;;5.75;2.60;;;;;;;;;;5036927;28;93432;-77
2022/10/28 14:01:23;;;;;;;6.88;2.75;;;;;;;;;;5037575;28;92506;-77
2022/10/28 14:03:50;;;;;;;12.85;2.88;;;;;;;;;;4993917;28;94854;-77
2022/10/28 14:06:29;;;;;;;5.40;2.33;;;;;;;;;;5036139;28;93511;-77
2022/10/28 14:08:55;;;;;;;3.92;2.55;;;;;;;;;;5040275;28;92456;-77
2022/10/28 14:11:22;;;;;;;6.78;2.90;;;;;;;;;;5037016;28;93457;-77
2022/10/28 14:13:53;;;;;;;4.88;2.80;;;;;;;;;;5037415;28;92473;-77
2022/10/28 14:16:30;;;;;;;6.03;2.90;;;;;;;;;;5036890;28;93500;-77
2022/10/28 14:18:59;;;;;;;5.80;2.75;;;;;;;;;;5036960;28;94318;-77
2022/10/28 14:21:44;;;;;;;6.93;2.70;;;;;;;;;;5019638;28;91774;-77
2022/10/28 14:24:12;;;;;;;5.40;2.65;;;;;;;;;;5036282;27;92457;-77
2022/10/28 14:26:57;;;;;;;5.88;2.83;;;;;;;;;;5019260;28;93635;-77
2022/10/28 14:29:27;;;;;;;10.82;2.72;;;;;;;;;;5035394;28;94925;-77
2022/10/28 14:31:54;;;;;;;7.20;2.63;;;;;;;;;;5022032;28;95921;-77
2022/10/28 14:34:20;;;;;;;6.75;3.08;;;;;;;;;;5036776;28;92456;-77
2022/10/28 14:36:56;;;;;;;6.03;2.97;;;;;;;;;;5019149;28;93619;-77
2022/10/28 14:39:34;;;;;;;7.07;2.58;;;;;;;;;;5018969;28;93435;-77
2022/10/28 14:42:25;;;;;;;9.00;2.83;;;;;;;;;;5036707;28;92405;-77
2022/10/28 14:44:57;;;;;;;4.72;2.40;;;;;;;;;;5036681;28;93143;-77
2022/10/28 14:47:42;;;;;;;8.23;3.40;;;;;;;;;;5016766;28;92734;-77
2022/10/28 14:50:13;;;;;;;6.00;2.80;;;;;;;;;;5016515;28;92391;-77
2022/10/28 14:52:40;;;;;;;8.32;2.45;;;;;;;;;;5016343;28;93159;-77
2022/10/28 14:55:18;;;;;;;7.03;3.22;;;;;;;;;;5017793;28;95800;-77
2022/10/28 14:57:44;;;;;;;6.07;2.85;;;;;;;;;;5017077;28;95516;-77
2022/10/28 15:00:15;;;;;;;3.08;2.42;;;;;;;;;;5016168;28;93413;-77
2022/10/28 15:02:42;;;;;;;9.20;2.60;;;;;;;;;;5016303;28;92994;-77